Startpagina
METAR-TAF:

METAR-TAF

Vliegvelden :

Meppen, Duitsland

Militair vliegvled

breedte: 52-43-24N, lengte: 007-19-35E, hoogte: 21 m

Actueel weer

Dit bericht is 21 minuten geleden gemaakt, om 07:20 UTC
Wind 2 kt uit het westzuidwesten
Temperatuur 6°C
Vochtigheid 100%
Druk 1007 hPa
Zicht 10 km of meer
Weinig wolken op 800 ft
Gebroken wolken op 3300 ft
lichte regen

METAR: ETWM 240720Z 24002KT 9999 -RA FEW008 BKN033 06/06 Q1007 RERA BLU

Tijdstip: 08:41 (07:41 UTC)


TAF: ontbreekt

Waarnemingen en weersverwachtingen van meer dan 4000 vliegvelden (METAR en TAF).

De beschikbare stations zijn de gele en rode punten op de kaart.

Ga met uw muis naar het station om de naam te zien.

Klik dan om waarnemingen en weersverwachtingen te zien.

kaart wijzigen: klik op de groene knoppen met een zwart kruis om in te zoomen, op de groene knop met een streepje om uit te zoomen of op de groene pijlen voor aangrenzende kaarten.


METAR-TAF: